Time;durP1;ratioP1;P1;durP2;ratioP2;P2;SDS_P1;SDS_P2;PMS_P1;PMS_P2;Temp;Humidity;BMP_temperature;BMP_pressure;BME280_temperature;BME280_humidity;BME280_pressure;Samples;Min_cycle;Max_cycle;Signal;HPM_P1;HPM_P2
2021/05/05 00:02:18;;;;;;;6.37;5.70;;;;;;;6.51;87.10;99718.31;6213728;28;20190;-73
2021/05/05 00:05:22;;;;;;;6.20;5.70;;;;;;;6.54;86.98;99717.88;6213489;28;20186;-76
2021/05/05 00:08:25;;;;;;;6.20;5.60;;;;;;;6.47;86.67;99700.84;6212668;28;20243;-73
2021/05/05 00:11:30;;;;;;;6.63;5.50;;;;;;;6.47;87.46;99700.84;6213554;28;20248;-73
2021/05/05 00:14:33;;;;;;;6.37;5.77;;;;;;;6.44;87.49;99701.28;6212476;28;20189;-74
2021/05/05 00:17:37;;;;;;;8.83;6.20;;;;;;;6.39;87.23;99687.56;6212488;28;20190;-74
2021/05/05 00:20:41;;;;;;;9.43;5.20;;;;;;;6.50;86.95;99689.53;6213271;28;20268;-74
2021/05/05 00:23:45;;;;;;;8.03;5.63;;;;;;;6.58;86.50;99686.56;6212330;28;20474;-74
2021/05/05 00:26:49;;;;;;;6.80;5.70;;;;;;;6.53;87.79;99678.28;6211303;28;20204;-73
2021/05/05 00:29:52;;;;;;;5.90;5.30;;;;;;;6.50;87.23;99678.72;6213567;28;20218;-73
2021/05/05 00:32:55;;;;;;;8.10;5.47;;;;;;;6.54;88.00;99674.53;6215206;28;20190;-73
2021/05/05 00:35:58;;;;;;;5.80;5.30;;;;;;;6.56;87.58;99667.00;6218559;28;20252;-74
2021/05/05 00:39:02;;;;;;;5.50;5.10;;;;;;;6.43;86.91;99670.63;6217464;28;20193;-74
2021/05/05 00:42:10;;;;;;;7.27;4.83;;;;;;;6.32;87.52;99666.75;6217083;28;20378;-73
2021/05/05 00:45:16;;;;;;;5.50;5.03;;;;;;;6.43;87.24;99658.97;6218269;28;20197;-74
2021/05/05 00:48:19;;;;;;;4.77;4.57;;;;;;;6.26;87.65;99654.09;6216876;28;20400;-73
2021/05/05 00:51:22;;;;;;;4.70;4.40;;;;;;;6.37;87.55;99649.03;6217884;28;20244;-73
2021/05/05 00:54:25;;;;;;;4.97;4.37;;;;;;;6.18;87.12;99631.84;6216780;28;20457;-73
2021/05/05 00:57:29;;;;;;;6.27;4.80;;;;;;;6.09;86.87;99633.13;6199932;28;20272;-73
2021/05/05 01:00:33;;;;;;;4.57;4.00;;;;;;;6.16;87.62;99640.16;6216388;28;20321;-74
2021/05/05 01:03:37;;;;;;;4.93;4.30;;;;;;;6.15;87.09;99633.09;6216579;28;20386;-74
2021/05/05 01:06:41;;;;;;;4.93;4.53;;;;;;;6.17;86.82;99631.00;6217115;28;20211;-74
2021/05/05 01:09:47;;;;;;;4.70;4.30;;;;;;;6.17;86.71;99625.59;6217720;28;20248;-73
2021/05/05 01:12:51;;;;;;;4.43;4.13;;;;;;;6.02;86.71;99611.53;6199974;28;20236;-73
2021/05/05 01:15:54;;;;;;;4.47;4.20;;;;;;;6.10;87.27;99603.16;6217321;28;20189;-73
2021/05/05 01:18:57;;;;;;;4.93;4.30;;;;;;;6.11;87.00;99599.38;6216683;28;20192;-74
2021/05/05 01:22:03;;;;;;;4.47;4.17;;;;;;;6.06;87.42;99596.50;6216202;28;20190;-74
2021/05/05 01:25:08;;;;;;;5.10;4.70;;;;;;;6.05;87.85;99594.84;6216387;28;20232;-73
2021/05/05 01:28:12;;;;;;;5.10;4.60;;;;;;;6.07;88.24;99603.56;6214897;28;20443;-73
2021/05/05 01:31:16;;;;;;;6.50;4.83;;;;;;;6.01;89.01;99582.78;6215747;28;20205;-73
2021/05/05 01:34:21;;;;;;;5.23;4.83;;;;;;;6.14;88.03;99577.28;6214965;28;20399;-73
2021/05/05 01:37:25;;;;;;;7.10;4.77;;;;;;;6.04;88.61;99582.34;6217126;28;20228;-73
2021/05/05 01:40:30;;;;;;;5.73;4.50;;;;;;;6.09;88.21;99579.81;6198642;28;20208;-74
2021/05/05 01:43:33;;;;;;;4.93;4.57;;;;;;;6.11;88.66;99569.59;6215940;28;20196;-74
2021/05/05 01:46:46;;;;;;;4.63;4.27;;;;;;;5.97;88.38;99570.72;6198197;28;20209;-74
2021/05/05 01:49:51;;;;;;;5.20;4.80;;;;;;;6.10;88.64;99570.66;6215520;28;20518;-74
2021/05/05 01:52:57;;;;;;;7.80;4.73;;;;;;;6.08;88.32;99561.94;6216892;28;20189;-73
2021/05/05 01:56:01;;;;;;;4.70;4.40;;;;;;;6.17;88.54;99543.50;6214090;28;20507;-73
2021/05/05 01:59:06;;;;;;;4.20;3.90;;;;;;;6.00;87.95;99521.56;6215764;28;20216;-73
2021/05/05 02:02:10;;;;;;;6.57;4.10;;;;;;;6.10;88.36;99524.63;6214618;28;20404;-73
2021/05/05 02:05:16;;;;;;;3.87;3.70;;;;;;;5.95;87.75;99513.28;6214205;28;20491;-73
2021/05/05 02:08:33;;;;;;;6.50;3.73;;;;;;;6.10;88.45;99526.50;6187831;28;20237;-72
2021/05/05 02:11:36;;;;;;;3.77;3.60;;;;;;;6.14;88.55;99506.88;6174192;28;20458;-73
2021/05/05 02:14:40;;;;;;;3.67;3.40;;;;;;;6.12;89.06;99505.44;6173823;28;20518;-73
2021/05/05 02:17:44;;;;;;;3.80;3.50;;;;;;;6.17;88.57;99503.72;6191844;28;20189;-74
2021/05/05 02:20:47;;;;;;;5.73;3.23;;;;;;;6.21;88.40;99496.00;6182772;28;20417;-73
2021/05/05 02:23:51;;;;;;;3.47;3.30;;;;;;;6.28;88.38;99494.06;6191523;28;20189;-73
2021/05/05 02:26:55;;;;;;;5.43;3.47;;;;;;;6.13;88.92;99467.31;6189522;28;20421;-73
2021/05/05 02:29:59;;;;;;;3.37;2.97;;;;;;;6.16;88.58;99472.28;6173778;28;20296;-73
2021/05/05 02:33:16;;;;;;;3.53;3.30;;;;;;;6.25;88.10;99468.25;6174826;28;20235;-74
2021/05/05 02:36:21;;;;;;;4.13;3.73;;;;;;;6.30;88.01;99468.41;6190265;28;20496;-74
2021/05/05 02:39:25;;;;;;;3.90;3.60;;;;;;;6.18;87.81;99453.94;6174131;28;20216;-74
2021/05/05 02:42:29;;;;;;;3.67;3.40;;;;;;;6.27;87.88;99452.59;6173892;28;20268;-74
2021/05/05 02:45:32;;;;;;;3.50;3.10;;;;;;;6.11;88.33;99442.31;6173542;28;20214;-74
2021/05/05 02:48:36;;;;;;;4.83;3.67;;;;;;;6.10;89.60;99439.84;6173209;28;20488;-73
2021/05/05 02:51:39;;;;;;;3.43;3.30;;;;;;;6.19;88.89;99450.16;6189972;28;20599;-74
2021/05/05 02:54:45;;;;;;;4.37;3.27;;;;;;;6.13;88.73;99451.06;6189816;28;20244;-73
2021/05/05 02:57:48;;;;;;;3.73;3.40;;;;;;;6.27;88.20;99441.75;6181277;28;20439;-74
2021/05/05 03:00:51;;;;;;;3.77;3.33;;;;;;;6.21;88.13;99423.69;6190930;28;20229;-73
2021/05/05 03:03:54;;;;;;;4.67;4.37;;;;;;;6.14;89.01;99428.34;6191053;28;20258;-73
2021/05/05 03:06:58;;;;;;;9.10;3.90;;;;;;;5.97;88.35;99402.91;6193078;28;20233;-73
2021/05/05 03:10:02;;;;;;;3.77;3.50;;;;;;;6.14;88.87;99425.63;6213887;28;20244;-73
2021/05/05 03:13:05;;;;;;;4.50;4.10;;;;;;;6.19;89.11;99417.66;6213600;28;20395;-73
2021/05/05 03:16:11;;;;;;;3.60;3.37;;;;;;;6.13;88.87;99426.72;6213526;28;20496;-73
2021/05/05 03:19:15;;;;;;;6.90;3.40;;;;;;;6.14;89.22;99420.22;6213412;28;20451;-73
2021/05/05 03:22:19;;;;;;;3.67;3.27;;;;;;;6.05;89.35;99416.16;6214676;28;20189;-73
2021/05/05 03:25:23;;;;;;;4.87;3.93;;;;;;;6.15;89.64;99421.88;6214043;28;20192;-73
2021/05/05 03:28:26;;;;;;;3.77;3.57;;;;;;;6.02;90.56;99416.59;6214384;28;20219;-74
2021/05/05 03:31:29;;;;;;;6.53;3.80;;;;;;;5.98;90.52;99388.31;6213498;28;20194;-73
2021/05/05 03:34:33;;;;;;;3.87;3.70;;;;;;;6.03;89.68;99393.06;6213027;28;20188;-73
2021/05/05 03:37:36;;;;;;;4.50;3.60;;;;;;;6.06;89.75;99379.88;6212972;28;20249;-74
2021/05/05 03:40:40;;;;;;;4.10;3.50;;;;;;;5.91;88.86;99392.94;6214293;28;20191;-73
2021/05/05 03:43:43;;;;;;;4.23;4.00;;;;;;;5.97;88.02;99375.81;6213981;28;20191;-73
2021/05/05 03:46:46;;;;;;;4.00;3.70;;;;;;;6.10;88.70;99381.13;6214323;28;20249;-73
2021/05/05 03:49:49;;;;;;;4.03;3.47;;;;;;;6.03;89.00;99384.94;6214081;28;20212;-73
2021/05/05 03:52:52;;;;;;;3.97;3.67;;;;;;;6.12;89.14;99381.72;6213842;28;20193;-73
2021/05/05 03:55:57;;;;;;;5.27;3.70;;;;;;;5.88;89.19;99355.50;6213739;28;20238;-72
2021/05/05 03:59:00;;;;;;;4.00;3.60;;;;;;;5.97;90.14;99375.81;6212223;28;20207;-73
2021/05/05 04:02:03;;;;;;;4.90;3.20;;;;;;;5.91;89.90;99365.03;6213917;28;20255;-73
2021/05/05 04:05:08;;;;;;;3.60;3.27;;;;;;;5.99;89.82;99379.13;6212534;28;20440;-72
2021/05/05 04:08:15;;;;;;;3.13;2.90;;;;;;;5.98;89.27;99377.50;6212998;28;20240;-72
2021/05/05 04:11:19;;;;;;;4.10;2.87;;;;;;;5.94;88.57;99381.69;6213750;28;20188;-73
2021/05/05 04:14:23;;;;;;;3.97;3.00;;;;;;;5.91;89.03;99382.13;6212425;28;20189;-72
2021/05/05 04:17:44;;;;;;;2.90;2.70;;;;;;;5.83;89.09;99352.59;6212436;28;20192;-72
2021/05/05 04:21:08;;;;;;;2.47;2.37;;;;;;;5.76;88.72;99368.06;6213649;28;20192;-73
2021/05/05 04:24:30;;;;;;;4.63;2.63;;;;;;;5.69;89.24;99388.94;6213362;28;20189;-73
2021/05/05 04:27:34;;;;;;;4.97;2.17;;;;;;;5.74;89.07;99374.75;6212637;28;20250;-73
2021/05/05 04:30:37;;;;;;;2.30;2.20;;;;;;;5.81;87.17;99370.94;6212045;28;20546;-73
2021/05/05 04:33:42;;;;;;;2.30;2.17;;;;;;;5.70;88.41;99369.78;6212367;28;20214;-73
2021/05/05 04:36:46;;;;;;;3.03;2.00;;;;;;;5.42;88.54;99371.25;6213571;28;20273;-73
2021/05/05 04:39:49;;;;;;;1.70;1.60;;;;;;;5.31;88.29;99372.81;6212492;28;20231;-73
2021/05/05 04:42:53;;;;;;;5.60;1.80;;;;;;;5.26;89.47;99366.38;6213124;28;20233;-73
2021/05/05 04:45:56;;;;;;;4.80;2.13;;;;;;;5.22;90.02;99386.78;6212087;28;20189;-73
2021/05/05 04:48:59;;;;;;;1.87;1.70;;;;;;;5.07;89.19;99378.97;6213070;28;20192;-73
2021/05/05 04:52:02;;;;;;;;;;;;;;;4.99;89.54;99374.66;6213235;28;20046;-73
2021/05/05 04:55:06;;;;;;;;;;;;;;;4.85;89.71;99381.16;6213972;28;19918;-73
2021/05/05 04:58:11;;;;;;;2.23;2.00;;;;;;;4.94;89.40;99366.34;6212031;28;20418;-72
2021/05/05 05:01:14;;;;;;;2.30;2.00;;;;;;;4.81;88.86;99369.13;6212833;28;20202;-73
2021/05/05 05:04:17;;;;;;;;;;;;;;;4.77;89.82;99362.50;6212710;28;20077;-73
2021/05/05 05:07:20;;;;;;;2.30;2.10;;;;;;;4.78;89.82;99385.75;6212986;28;20057;-73
2021/05/05 05:10:23;;;;;;;2.57;2.00;;;;;;;4.81;89.55;99361.03;6211696;28;20381;-73
2021/05/05 05:13:27;;;;;;;2.10;2.00;;;;;;;4.74;90.08;99352.13;6212995;28;20260;-73
2021/05/05 05:16:30;;;;;;;1.67;1.40;;;;;;;4.54;89.66;99370.31;6213069;28;20220;-75
2021/05/05 05:19:33;;;;;;;1.30;1.30;;;;;;;4.62;89.06;99370.06;6212936;28;20481;-72
2021/05/05 05:22:37;;;;;;;3.23;1.53;;;;;;;4.47;89.65;99361.38;6217438;28;20187;-73
2021/05/05 05:25:40;;;;;;;3.50;1.60;;;;;;;4.30;89.46;99360.19;6216832;28;20256;-73
2021/05/05 05:28:44;;;;;;;2.10;1.90;;;;;;;4.41;89.68;99368.47;6215832;28;20195;-73
2021/05/05 05:31:48;;;;;;;;;;;;;;;4.45;88.38;99374.25;6216357;28;20453;-72
2021/05/05 05:34:51;;;;;;;;;;;;;;;4.43;89.41;99376.34;6217702;28;19921;-73
2021/05/05 05:37:54;;;;;;;;;;;;;;;4.39;89.66;99358.94;6217299;28;19959;-72
2021/05/05 05:40:57;;;;;;;2.77;1.60;;;;;;;4.51;89.72;99370.72;6215587;28;20583;-72
2021/05/05 05:44:01;;;;;;;1.73;1.73;;;;;;;4.46;90.36;99375.94;6215733;28;20220;-72
2021/05/05 05:47:04;;;;;;;;;;;;;;;4.39;90.12;99369.72;6216284;28;20211;-72
2021/05/05 05:50:11;;;;;;;2.97;1.70;;;;;;;4.44;90.25;99372.63;6216668;28;20559;-73
2021/05/05 05:53:16;;;;;;;1.70;1.60;;;;;;;4.44;89.44;99380.72;6215385;28;20484;-73
2021/05/05 05:56:19;;;;;;;1.50;1.50;;;;;;;4.20;90.47;99370.59;6215351;28;20470;-72
2021/05/05 05:59:23;;;;;;;3.40;1.67;;;;;;;4.24;90.59;99366.44;6215067;28;20488;-73
2021/05/05 06:02:26;;;;;;;1.80;1.70;;;;;;;4.30;91.09;99371.00;6215249;28;20189;-73
2021/05/05 06:05:29;;;;;;;1.50;1.50;;;;;;;4.33;90.41;99357.06;6215986;28;20228;-73
2021/05/05 06:08:32;;;;;;;2.00;1.87;;;;;;;4.39;90.82;99361.63;6215441;28;20268;-73
2021/05/05 06:11:36;;;;;;;2.60;1.47;;;;;;;4.38;90.52;99362.66;6216166;28;20316;-73
2021/05/05 06:14:40;;;;;;;4.03;1.97;;;;;;;4.42;91.23;99347.69;6215626;28;20269;-73
2021/05/05 06:17:44;;;;;;;1.60;1.60;;;;;;;4.50;90.78;99363.66;6215894;28;20232;-72
2021/05/05 06:20:48;;;;;;;1.43;1.37;;;;;;;4.39;91.05;99361.63;6216156;28;20232;-72
2021/05/05 06:23:51;;;;;;;1.70;1.60;;;;;;;4.40;90.55;99356.00;6215058;28;20222;-72
2021/05/05 06:26:54;;;;;;;1.30;1.30;;;;;;;4.32;91.11;99358.94;6215388;28;20236;-73
2021/05/05 06:29:58;;;;;;;1.50;1.50;;;;;;;4.49;90.52;99353.91;6215556;28;20279;-73
2021/05/05 06:33:01;;;;;;;1.53;1.50;;;;;;;4.28;90.64;99332.59;6215082;28;20235;-73
2021/05/05 06:36:06;;;;;;;2.10;1.47;;;;;;;4.47;90.66;99355.97;6215829;28;20255;-73
2021/05/05 06:39:11;;;;;;;2.50;1.30;;;;;;;4.54;90.69;99362.19;6215419;28;20232;-73
2021/05/05 06:42:14;;;;;;;1.13;1.13;;;;;;;4.36;89.42;99370.97;6214488;28;20467;-72
2021/05/05 06:45:22;;;;;;;1.27;1.27;;;;;;;4.29;89.69;99366.63;6215690;28;20188;-73
2021/05/05 06:48:25;;;;;;;1.10;1.10;;;;;;;4.15;90.33;99370.41;6214270;28;20193;-73
2021/05/05 06:51:28;;;;;;;;;;;;;;;4.24;90.12;99342.13;6214555;28;20577;-72
2021/05/05 06:54:32;;;;;;;2.30;2.10;;;;;;;4.36;90.02;99362.06;6215412;28;20045;-73
2021/05/05 06:57:36;;;;;;;2.00;1.90;;;;;;;4.39;90.18;99372.44;6215061;28;20220;-72
2021/05/05 07:00:40;;;;;;;1.60;1.40;;;;;;;4.26;88.56;99375.16;6215169;28;20197;-73
2021/05/05 07:04:05;;;;;;;2.83;2.50;;;;;;;4.20;89.86;99360.63;6213973;28;20515;-72
2021/05/05 07:07:11;;;;;;;1.70;1.60;;;;;;;4.29;89.35;99364.75;6213763;28;20327;-73
2021/05/05 07:10:14;;;;;;;1.80;1.60;;;;;;;4.56;88.68;99376.31;6214831;28;20217;-73
2021/05/05 07:13:17;;;;;;;1.87;1.77;;;;;;;4.32;88.90;99368.91;6213076;28;20504;-73
2021/05/05 07:16:21;;;;;;;1.33;1.23;;;;;;;4.37;88.57;99355.59;6215011;28;20216;-73
2021/05/05 07:19:25;;;;;;;1.60;1.60;;;;;;;4.38;89.56;99368.06;6213675;28;20525;-72
2021/05/05 07:22:28;;;;;;;1.30;1.30;;;;;;;4.29;89.43;99353.13;6213570;28;20211;-72
2021/05/05 07:25:31;;;;;;;2.40;1.67;;;;;;;4.46;89.62;99354.31;6214802;28;20189;-73
2021/05/05 07:28:34;;;;;;;1.97;1.83;;;;;;;4.44;90.58;99359.13;6214429;28;20194;-73
2021/05/05 07:31:38;;;;;;;1.40;1.40;;;;;;;4.41;90.27;99367.63;6214584;28;20218;-73
2021/05/05 07:34:42;;;;;;;1.30;1.30;;;;;;;4.29;89.64;99364.75;6213285;28;20466;-73
2021/05/05 07:47:49;;;;;;;1.20;1.10;;;;;;;4.15;91.25;99362.31;6196885;28;20228;-73
2021/05/05 07:50:53;;;;;;;1.13;1.13;;;;;;;4.29;90.84;99363.91;6213047;28;20244;-72
2021/05/05 07:53:56;;;;;;;1.67;1.57;;;;;;;4.54;90.62;99367.59;6212855;28;20189;-73
2021/05/05 07:56:59;;;;;;;1.40;1.40;;;;;;;4.44;90.25;99380.72;6213374;28;20190;-73
2021/05/05 08:00:02;;;;;;;3.27;1.30;;;;;;;4.39;91.36;99375.13;6213277;28;20194;-73
2021/05/05 08:03:22;;;;;;;1.20;1.20;;;;;;;4.34;90.68;99377.59;6214173;28;20194;-72
2021/05/05 08:06:26;;;;;;;2.50;1.20;;;;;;;4.15;90.65;99370.41;6213511;28;20205;-72
2021/05/05 08:09:29;;;;;;;1.10;1.10;;;;;;;4.10;91.08;99378.31;6213774;28;20233;-72
2021/05/05 08:12:33;;;;;;;0.90;0.90;;;;;;;4.15;91.57;99373.09;6213917;28;20188;-73
2021/05/05 08:15:36;;;;;;;1.10;1.00;;;;;;;4.20;90.59;99365.19;6213835;28;20197;-73
2021/05/05 08:18:59;;;;;;;2.03;1.20;;;;;;;4.26;89.88;99364.38;6213249;28;20188;-73
2021/05/05 08:22:03;;;;;;;0.90;0.90;;;;;;;4.20;90.11;99368.75;6196357;28;20207;-73
2021/05/05 08:25:07;;;;;;;0.67;0.67;;;;;;;4.12;90.30;99373.53;6213017;28;20212;-73
2021/05/05 08:28:11;;;;;;;1.20;1.20;;;;;;;4.04;90.97;99369.19;6212297;28;20550;-72
2021/05/05 08:31:14;;;;;;;0.87;0.87;;;;;;;4.10;90.94;99381.00;6212193;28;20212;-73
2021/05/05 08:34:18;;;;;;;0.90;0.90;;;;;;;4.11;91.06;99371.88;6213131;28;20251;-74
2021/05/05 08:37:22;;;;;;;1.23;1.07;;;;;;;4.02;90.19;99376.66;6212476;28;20495;-73
2021/05/05 08:40:25;;;;;;;0.80;0.80;;;;;;;4.04;90.19;99371.03;6213547;28;20199;-72
2021/05/05 08:43:28;;;;;;;1.37;0.90;;;;;;;3.98;90.53;99377.28;6212302;28;20407;-73
2021/05/05 08:46:31;;;;;;;1.00;1.00;;;;;;;3.95;90.52;99377.72;6213249;28;20186;-73
2021/05/05 08:49:36;;;;;;;1.10;1.10;;;;;;;4.06;90.79;99363.56;6212283;28;20189;-72
2021/05/05 08:52:39;;;;;;;0.80;0.80;;;;;;;4.03;89.23;99375.59;6213189;28;20189;-73
2021/05/05 08:55:43;;;;;;;3.50;0.90;;;;;;;3.93;90.10;99377.09;6216582;28;20194;-73
2021/05/05 08:58:46;;;;;;;1.97;1.07;;;;;;;3.81;90.41;99384.97;6217904;28;20189;-73
2021/05/05 09:01:49;;;;;;;;;;;;;;;3.79;90.33;99374.41;6218153;28;25078;-73
2021/05/05 09:04:56;;;;;;;;;;;;;;;3.82;90.78;99366.94;6218028;28;19960;-73
2021/05/05 09:08:14;;;;;;;0.80;0.80;;;;;;;3.67;90.53;99354.47;6216799;28;20982;-73
2021/05/05 09:11:17;;;;;;;0.90;0.90;;;;;;;3.68;90.99;99361.53;6217502;28;20213;-74
2021/05/05 09:14:20;;;;;;;0.90;0.90;;;;;;;3.72;91.66;99368.16;6216582;28;20220;-73
2021/05/05 09:17:26;;;;;;;1.10;1.10;;;;;;;3.85;91.27;99369.22;6216456;28;20204;-75
2021/05/05 09:20:32;;;;;;;1.00;1.00;;;;;;;3.72;90.63;99372.75;6217658;28;20199;-73
2021/05/05 09:23:35;;;;;;;1.10;1.10;;;;;;;3.77;92.33;99371.06;6217862;28;20190;-73
2021/05/05 09:26:38;;;;;;;1.00;1.00;;;;;;;3.80;92.47;99353.63;6216966;28;20193;-74
2021/05/05 09:29:42;;;;;;;;;;;;;;;3.80;91.75;99376.06;6216662;28;20198;-74
2021/05/05 09:32:47;;;;;;;;;;;;;;;3.76;92.09;99369.44;6216688;28;19956;-73
2021/05/05 09:35:53;;;;;;;;;;;;;;;3.82;92.22;99372.31;6217575;28;19918;-74
2021/05/05 09:38:56;;;;;;;;;;;;;;;3.94;92.26;99359.84;6216744;28;19917;-71
2021/05/05 09:41:59;;;;;;;;;;;;;;;3.94;91.96;99367.94;6216577;28;19972;-72
2021/05/05 09:45:05;;;;;;;;;;;;;;;3.86;91.58;99384.34;6217184;28;19998;-72
2021/05/05 09:48:12;;;;;;;;;;;;;;;3.93;93.20;99375.22;6215828;28;19996;-73
2021/05/05 09:51:15;;;;;;;;;;;;;;;3.90;92.48;99369.41;6216780;28;19933;-73
2021/05/05 09:54:22;;;;;;;;;;;;;;;3.96;92.17;99369.41;6215763;28;20092;-73
2021/05/05 09:57:26;;;;;;;;;;;;;;;3.93;93.86;99374.41;6217113;28;19964;-73
2021/05/05 10:00:29;;;;;;;;;;;;;;;3.98;93.04;99377.28;6215653;28;20201;-73
2021/05/05 10:03:36;;;;;;;;;;;;;;;4.01;92.45;99371.47;6216327;28;19956;-72
2021/05/05 10:06:40;;;;;;;;;;;;;;;3.99;92.87;99368.97;6215831;28;19918;-74
2021/05/05 10:09:43;;;;;;;;;;;;;;;3.98;93.26;99378.09;6215533;28;20225;-74
2021/05/05 10:12:46;;;;;;;;;;;;;;;4.06;93.09;99374.34;6216439;28;19921;-72
2021/05/05 10:15:49;;;;;;;;;;;;;;;4.04;92.18;99376.44;6216435;28;19981;-73
2021/05/05 10:18:52;;;;;;;;;;;;;;;4.13;92.28;99364.41;6216174;28;19956;-73
2021/05/05 10:21:58;;;;;;;;;;;;;;;4.21;92.55;99377.66;6215178;28;19953;-74
2021/05/05 10:25:01;;;;;;;;;;;;;;;4.23;93.00;99372.88;6215910;28;19941;-74
2021/05/05 10:28:05;;;;;;;;;;;;;;;4.13;93.12;99377.88;6216159;28;19922;-72
2021/05/05 10:31:15;;;;;;;;;;;;;;;4.22;92.22;99374.75;6214840;28;20184;-73
2021/05/05 10:34:21;;;;;;;;;;;;;;;4.22;93.81;99379.31;6215725;28;19918;-72
2021/05/05 10:37:38;;;;;;;;;;;;;;;4.24;94.15;99375.34;6213608;28;19960;-74
2021/05/05 10:40:42;;;;;;;;;;;;;;;4.29;94.26;99380.94;6215101;28;19921;-73
2021/05/05 10:43:49;;;;;;;;;;;;;;;4.33;95.06;99378.66;6214883;28;20131;-74
2021/05/05 10:47:09;;;;;;;;;;;;;;;4.32;95.33;99374.28;6197483;28;19922;-74
2021/05/05 10:50:13;;;;;;;;;;;;;;;4.36;94.12;99380.94;6215213;28;19924;-73
2021/05/05 10:53:17;;;;;;;;;;;;;;;4.41;95.11;99378.44;6214551;28;19918;-74
2021/05/05 10:56:24;;;;;;;;;;;;;;;4.51;94.81;99373.41;6215821;28;19953;-73
2021/05/05 10:59:27;;;;;;;;;;;;;;;4.57;95.54;99367.13;6215461;28;19933;-73
2021/05/05 11:02:48;;;;;;;;;;;;;;;4.68;94.47;99369.19;6214438;28;20085;-73
2021/05/05 11:05:51;;;;;;;;;;;;;;;4.65;95.39;99364.22;6208672;28;19917;-72
2021/05/05 11:08:54;;;;;;;;;;;;;;;4.62;95.87;99380.88;6215406;28;19921;-74
2021/05/05 11:11:57;;;;;;;;;;;;;;;4.58;96.00;99374.22;6214211;28;20196;-73
2021/05/05 11:15:01;;;;;;;;;;;;;;;4.66;96.30;99373.97;6214727;28;19925;-74
2021/05/05 11:18:20;;;;;;;;;;;;;;;4.63;96.12;99382.50;6213378;28;20252;-73
2021/05/05 11:21:42;;;;;;;;;;;;;;;4.61;96.43;99379.19;6214244;28;19918;-74
2021/05/05 11:24:45;;;;;;;;;;;;;;;4.67;97.58;99378.34;6214295;28;19921;-73
2021/05/05 11:27:51;;;;;;;;;;;;;;;4.80;97.43;99383.66;6214439;28;19918;-72
2021/05/05 11:30:54;;;;;;;;;;;;;;;4.72;96.88;99381.25;6214237;28;19918;-74
2021/05/05 11:34:00;;;;;;;;;;;;;;;4.73;96.55;99382.88;6214906;28;19941;-74
2021/05/05 11:37:10;;;;;;;;;;;;;;;4.68;97.16;99390.78;6213703;28;19918;-74
2021/05/05 11:40:14;;;;;;;;;;;;;;;4.77;96.71;99381.41;6214886;28;19925;-74
2021/05/05 11:43:20;;;;;;;;;;;;;;;4.91;96.80;99380.31;6213663;28;19928;-73
2021/05/05 11:46:27;;;;;;;;;;;;;;;4.97;97.31;99373.22;6213541;28;20136;-73
2021/05/05 11:49:31;;;;;;;;;;;;;;;5.04;97.48;99377.53;6214538;28;19921;-74
2021/05/05 11:52:34;;;;;;;;;;;;;;;4.96;96.64;99383.19;6213239;28;20251;-73
2021/05/05 11:55:50;;;;;;;;;;;;;;;4.99;97.95;99380.06;6214369;28;19960;-73
2021/05/05 11:58:57;;;;;;;;;;;;;;;5.11;97.35;99373.97;6214643;28;19952;-72
2021/05/05 12:02:04;;;;;;;1.83;1.07;;;;;;;4.91;97.01;99347.88;6213902;28;20555;-73
2021/05/05 12:05:07;;;;;;;1.53;0.80;;;;;;;5.06;97.01;99372.72;6213541;28;20192;-73
2021/05/05 12:08:14;;;;;;;2.10;1.00;;;;;;;5.15;98.19;99383.28;6212811;28;20271;-72
2021/05/05 12:11:20;;;;;;;1.00;1.00;;;;;;;5.13;98.50;99374.56;6212543;28;20564;-73
2021/05/05 12:14:30;;;;;;;;;;;;;;;5.16;97.95;99382.25;6213938;28;20191;-73
2021/05/05 12:17:36;;;;;;;;;;;;;;;5.21;97.94;99379.72;6213027;28;19977;-73
2021/05/05 12:20:40;;;;;;;0.83;0.83;;;;;;;5.22;97.86;99386.78;6213819;28;20061;-72
2021/05/05 12:23:45;;;;;;;0.93;0.90;;;;;;;5.15;98.50;99375.19;6212538;28;20538;-73
2021/05/05 12:26:49;;;;;;;2.97;1.57;;;;;;;5.26;98.12;99369.09;6212377;28;20494;-72
2021/05/05 12:29:58;;;;;;;1.43;1.10;;;;;;;5.21;97.80;99374.31;6217085;28;20191;-72
2021/05/05 12:33:02;;;;;;;1.10;1.10;;;;;;;5.28;97.28;99385.91;6217207;28;20564;-73
2021/05/05 12:36:09;;;;;;;1.50;1.40;;;;;;;5.24;97.77;99390.13;6218789;28;20251;-73
2021/05/05 12:39:13;;;;;;;;;;;;;;;5.19;98.28;99381.81;6219085;28;19918;-72
2021/05/05 12:42:16;;;;;;;2.37;1.50;;;;;;;5.17;98.79;99384.72;6218331;28;20098;-73
2021/05/05 12:45:22;;;;;;;1.50;1.10;;;;;;;5.22;98.62;99378.66;6217946;28;20194;-72
2021/05/05 12:48:30;;;;;;;1.10;1.07;;;;;;;5.26;99.12;99385.31;6217204;28;20252;-72
2021/05/05 12:51:38;;;;;;;1.20;1.20;;;;;;;5.24;99.63;99384.72;6218276;28;20275;-73
2021/05/05 12:54:44;;;;;;;3.70;1.60;;;;;;;5.30;99.05;99378.41;6218210;28;20188;-74
2021/05/05 12:57:56;;;;;;;;;;;;;;;5.28;99.72;99381.34;6218390;28;20053;-73
2021/05/05 13:01:08;;;;;;;;;;;;;;;5.37;99.83;99381.88;6218050;28;19964;-73
2021/05/05 13:04:11;;;;;;;;;;;;;;;5.64;99.18;99380.66;6218449;28;19917;-73
2021/05/05 13:07:27;;;;;;;;;;;;;;;5.55;98.66;99381.97;6218415;28;19963;-73
2021/05/05 13:10:40;;;;;;;;;;;;;;;5.61;99.14;99375.69;6216896;28;20166;-73
2021/05/05 13:13:44;;;;;;;;;;;;;;;5.63;98.85;99376.28;6218079;28;19918;-72
2021/05/05 13:17:02;;;;;;;;;;;;;;;5.78;98.50;99371.38;6216954;28;19924;-73
2021/05/05 13:20:30;;;;;;;1.40;1.30;;;;;;;5.78;99.21;99375.97;6216185;28;20413;-72
2021/05/05 13:30:30;;;;;;;1.00;1.00;;;;;;;5.98;99.71;99380.19;6215985;28;20187;-73
2021/05/05 13:33:33;;;;;;;;;;;;;;;6.02;99.45;99381.41;6217287;28;20114;-74
2021/05/05 13:36:46;;;;;;;;;;;;;;;6.03;99.04;99385.78;6217759;28;19941;-74
2021/05/05 13:39:50;;;;;;;;;;;;;;;6.03;97.96;99385.78;6216313;28;19925;-73
2021/05/05 13:42:58;;;;;;;;;;;;;;;6.12;97.25;99376.31;6216690;28;19939;-72
2021/05/05 13:46:05;;;;;;;;;;;;;;;6.05;97.97;99378.25;6217004;28;19976;-73
2021/05/05 13:49:21;;;;;;;;;;;;;;;6.08;98.17;99383.22;6216178;28;20153;-73
2021/05/05 13:52:24;;;;;;;;;;;;;;;6.05;98.75;99375.53;6217392;28;19953;-74
2021/05/05 13:55:42;;;;;;;;;;;;;;;6.11;97.45;99380.03;6217040;28;19918;-74
2021/05/05 13:58:47;;;;;;;;;;;;;;;6.09;98.16;99374.03;6217009;28;20000;-73
2021/05/05 14:01:50;;;;;;;;;;;;;;;6.08;98.55;99372.41;6217263;28;19925;-72
2021/05/05 14:04:55;;;;;;;;;;;;;;;6.17;98.50;99381.88;6216031;28;19952;-72
2021/05/05 14:07:59;;;;;;;;;;;;;;;6.14;98.76;99376.91;6216226;28;19924;-72
2021/05/05 14:11:03;;;;;;;;;;;;;;;6.19;98.85;99379.75;6215620;28;19918;-72
2021/05/05 14:14:06;;;;;;;;;;;;;;;6.16;99.47;99382.09;6216709;28;19918;-72
2021/05/05 14:17:10;;;;;;;;;;;;;;;6.24;99.49;99377.22;6217004;28;20001;-72
2021/05/05 14:20:15;;;;;;;;;;;;;;;6.32;98.56;99378.78;6216354;28;19973;-72
2021/05/05 14:23:18;;;;;;;;;;;;;;;6.30;99.04;99381.75;6215721;28;19917;-72
2021/05/05 14:26:21;;;;;;;;;;;;;;;6.36;98.86;99379.19;6215195;28;19971;-72
2021/05/05 14:29:24;;;;;;;;;;;;;;;6.29;98.62;99385.50;6215556;28;19918;-72
2021/05/05 14:32:27;;;;;;;;;;;;;;;6.32;99.18;99388.81;6214958;28;20197;-73
2021/05/05 14:35:32;;;;;;;;;;;;;;;6.27;99.44;99393.00;6214996;28;20205;-73
2021/05/05 14:38:37;;;;;;;;;;;;;;;6.25;99.96;99384.28;6215360;28;19925;-73
2021/05/05 14:41:41;;;;;;;;;;;;;;;6.30;100.00;99389.88;6215802;28;19980;-72
2021/05/05 14:44:59;;;;;;;;;;;;;;;6.43;100.00;99390.75;6215849;28;19918;-73
2021/05/05 14:48:10;;;;;;;;;;;;;;;6.44;99.85;99381.59;6216095;28;19924;-73
2021/05/05 14:51:15;;;;;;;;;;;;;;;6.40;100.00;99380.38;6214474;28;20203;-73
2021/05/05 14:54:18;;;;;;;;;;;;;;;6.41;100.00;99388.28;6215091;28;19921;-72
2021/05/05 14:57:24;;;;;;;;;;;;;;;6.38;100.00;99382.50;6214711;28;20295;-73
2021/05/05 15:00:27;;;;;;;;;;;;;;;6.47;100.00;99386.56;6214637;28;20197;-73
2021/05/05 15:03:31;;;;;;;;;;;;;;;6.47;99.58;99386.56;6215382;28;19956;-73
2021/05/05 15:06:37;;;;;;;;;;;;;;;6.52;99.14;99392.13;6214819;28;19917;-73
2021/05/05 15:09:52;;;;;;;;;;;;;;;6.37;99.25;99387.06;6215327;28;19956;-72
2021/05/05 15:12:57;;;;;;;;;;;;;;;6.35;99.08;99388.34;6214040;28;20211;-74
2021/05/05 15:16:30;;;;;;;;;;;;;;;6.32;99.29;99389.63;6215123;28;19917;-73
2021/05/05 15:29:57;;;;;;;;;;;;;;;6.17;99.03;99386.44;6213716;28;19922;-73
2021/05/05 15:36:23;;;;;;;;;;;;;;;6.15;98.21;99386.69;6197711;28;20004;-72
2021/05/05 15:39:29;;;;;;;;;;;;;;;6.12;98.21;99389.84;6214115;28;19917;-72
2021/05/05 15:42:36;;;;;;;;;;;;;;;6.09;98.35;99393.00;6214788;28;19952;-72
2021/05/05 15:45:48;;;;;;;;;;;;;;;6.09;98.43;99390.28;6214513;28;19925;-72
2021/05/05 15:48:51;;;;;;;;;;;;;;;6.03;98.86;99387.66;6214297;28;19956;-72